createdAt,value
2022-10-24T05:05:26.698Z,100538.13
2022-10-24T05:10:47.617Z,100547.47
2022-10-24T05:16:08.686Z,100552.44
2022-10-24T05:21:29.429Z,100550.72
2022-10-24T05:26:50.191Z,100539.13
2022-10-24T05:32:11.797Z,100566.88
2022-10-24T05:37:32.695Z,100555.13
2022-10-24T05:42:53.781Z,100567.16
2022-10-24T05:48:14.620Z,100571.91
2022-10-24T05:53:35.403Z,100558.78
2022-10-24T05:58:57.524Z,100569.63
2022-10-24T06:04:18.189Z,100579.09
2022-10-24T06:09:39.603Z,100578.66
2022-10-24T06:15:00.539Z,100565.25
2022-10-24T06:20:21.228Z,100570.97
2022-10-24T06:25:43.069Z,100578.41
2022-10-24T06:31:04.820Z,100564.06
2022-10-24T06:36:26.952Z,100558.59
2022-10-24T06:41:50.437Z,100556.97
2022-10-24T06:47:11.804Z,100542.94
2022-10-24T06:52:32.743Z,100551.28
2022-10-24T06:57:54.033Z,100557.25
2022-10-24T07:03:15.911Z,100561.13
2022-10-24T07:08:37.108Z,100562.91
2022-10-24T07:14:00.849Z,100564.50
2022-10-24T07:19:23.032Z,100569.34
2022-10-24T07:24:44.046Z,100577.47
2022-10-24T07:30:06.234Z,100595.31
2022-10-24T07:35:26.993Z,100594.81
2022-10-24T07:40:48.161Z,100603.78
2022-10-24T07:46:11.712Z,100608.28
2022-10-24T07:51:32.993Z,100600.72
2022-10-24T07:56:54.173Z,100601.34
2022-10-24T08:02:16.146Z,100593.69
2022-10-24T08:07:37.508Z,100583.56
2022-10-24T08:12:58.802Z,100588.28
2022-10-24T08:18:19.569Z,100586.72
2022-10-24T08:23:43.836Z,100579.84
2022-10-24T08:29:10.790Z,100582.38
2022-10-24T08:34:31.969Z,100581.41
2022-10-24T08:39:55.750Z,100569.16
2022-10-24T08:45:26.763Z,100577.00
2022-10-24T08:50:53.218Z,100570.91
2022-10-24T08:56:14.328Z,100571.75
2022-10-24T09:01:50.504Z,100569.56
2022-10-24T09:07:18.600Z,100571.84
2022-10-24T09:12:40.168Z,100557.97
2022-10-24T09:18:01.343Z,100548.19
2022-10-24T09:23:24.518Z,100554.47
2022-10-24T09:28:45.821Z,100556.38
2022-10-24T09:34:07.401Z,100550.38
2022-10-24T09:39:32.162Z,100544.97
2022-10-24T09:44:57.817Z,100552.94
2022-10-24T09:50:21.490Z,100558.72
2022-10-24T09:55:47.062Z,100544.84
2022-10-24T10:01:21.131Z,100559.16
2022-10-24T10:06:50.282Z,100547.03
2022-10-24T10:12:26.924Z,100545.88
2022-10-24T10:17:53.801Z,100529.59
2022-10-24T10:23:36.347Z,100539.63
2022-10-24T10:28:59.170Z,100535.28
2022-10-24T10:34:28.188Z,100536.59
2022-10-24T10:39:55.306Z,100530.78
2022-10-24T10:45:41.181Z,100536.00
2022-10-24T10:51:11.126Z,100535.78
2022-10-24T10:56:48.499Z,100544.38
2022-10-24T11:02:50.589Z,100542.25
2022-10-24T11:08:39.638Z,100528.00
2022-10-24T11:14:33.141Z,100537.38
2022-10-24T11:20:23.664Z,100539.16
2022-10-24T11:25:59.251Z,100529.50
2022-10-24T11:31:23.795Z,100533.44
2022-10-24T11:37:18.841Z,100525.72
2022-10-24T11:42:43.010Z,100508.31
2022-10-24T11:48:16.820Z,100510.34
2022-10-24T11:53:39.408Z,100506.38
2022-10-24T11:59:06.295Z,100506.66
2022-10-24T12:04:57.971Z,100512.59
2022-10-24T12:10:47.853Z,100517.56
2022-10-24T12:16:15.633Z,100503.09
2022-10-24T12:21:41.672Z,100501.56
2022-10-24T12:27:06.966Z,100494.50
2022-10-24T12:33:06.883Z,100486.38
2022-10-24T12:38:27.854Z,100481.16
2022-10-24T12:43:49.048Z,100479.09
2022-10-24T12:49:10.236Z,100472.53
2022-10-24T12:54:49.286Z,100465.53
2022-10-24T13:00:31.527Z,100463.88
2022-10-24T13:06:04.322Z,100466.47
2022-10-24T13:11:44.861Z,100468.06
2022-10-24T13:17:27.286Z,100476.75
2022-10-24T13:22:50.945Z,100465.28
2022-10-24T13:28:24.028Z,100479.03
2022-10-24T13:33:46.476Z,100475.50
2022-10-24T13:39:11.700Z,100472.19
2022-10-24T13:44:47.898Z,100477.53
2022-10-24T13:50:14.708Z,100474.31
2022-10-24T13:55:39.009Z,100485.97
2022-10-24T14:01:25.689Z,100470.63
2022-10-24T14:06:46.447Z,100485.03
2022-10-24T14:12:08.105Z,100494.03
2022-10-24T14:17:34.519Z,100488.34
2022-10-24T14:22:56.294Z,100503.53
2022-10-24T14:28:21.128Z,100498.97
2022-10-24T14:33:45.371Z,100494.41
2022-10-24T14:39:06.661Z,100508.97
2022-10-24T14:44:28.529Z,100507.16
2022-10-24T14:49:50.309Z,100501.75
2022-10-24T14:55:14.363Z,100511.81
2022-10-24T15:00:39.856Z,100503.03
2022-10-24T15:06:12.518Z,100509.47
2022-10-24T15:11:47.417Z,100508.22
2022-10-24T15:17:17.338Z,100504.38
2022-10-24T15:22:38.409Z,100507.44
2022-10-24T15:28:01.047Z,100496.63
2022-10-24T15:33:22.024Z,100502.34
2022-10-24T15:38:43.010Z,100501.16
2022-10-24T15:44:13.640Z,100507.72
2022-10-24T15:49:35.057Z,100509.88
2022-10-24T15:54:56.169Z,100512.06
2022-10-24T16:00:19.925Z,100515.16
2022-10-24T16:05:44.106Z,100517.41
2022-10-24T16:11:07.712Z,100511.13
2022-10-24T16:16:30.705Z,100517.78
2022-10-24T16:21:52.301Z,100530.59
2022-10-24T16:27:13.541Z,100520.88
2022-10-24T16:32:34.510Z,100530.19
2022-10-24T16:37:56.937Z,100525.75
2022-10-24T16:43:19.775Z,100532.66
2022-10-24T16:48:40.757Z,100543.66
2022-10-24T16:54:02.921Z,100546.25
2022-10-24T16:59:24.073Z,100554.78
2022-10-24T17:04:45.150Z,100550.38
2022-10-24T17:10:06.390Z,100554.78
2022-10-24T17:15:27.085Z,100555.59
2022-10-24T17:20:48.250Z,100552.03
2022-10-24T17:26:15.233Z,100555.41
2022-10-24T17:31:36.295Z,100554.34
2022-10-24T17:37:20.525Z,100558.59
2022-10-24T17:42:41.817Z,100551.66
2022-10-24T17:48:02.744Z,100558.63
2022-10-24T17:53:23.649Z,100565.41
2022-10-24T17:58:46.628Z,100558.47
2022-10-24T18:04:08.060Z,100571.31
2022-10-24T18:09:29.771Z,100580.69
2022-10-24T18:14:50.537Z,100578.78
2022-10-24T18:20:13.002Z,100585.81
2022-10-24T18:25:33.954Z,100588.25
2022-10-24T18:30:54.861Z,100587.16
2022-10-24T18:36:21.681Z,100587.94
2022-10-24T18:41:56.639Z,100594.66
2022-10-24T18:47:21.937Z,100600.44
2022-10-24T18:53:05.989Z,100606.44
2022-10-24T18:58:27.146Z,100614.19
2022-10-24T19:03:48.223Z,100607.06
2022-10-24T19:09:17.420Z,100613.91
2022-10-24T19:14:39.003Z,100610.38
2022-10-24T19:20:01.061Z,100609.41
2022-10-24T19:25:22.124Z,100614.44
2022-10-24T19:30:44.708Z,100609.16
2022-10-24T19:36:06.083Z,100610.75
2022-10-24T19:41:26.969Z,100609.88
2022-10-24T19:46:47.895Z,100613.28
2022-10-24T19:52:09.735Z,100616.63
2022-10-24T19:57:31.077Z,100610.53
2022-10-24T20:02:52.105Z,100618.09
2022-10-24T20:08:12.925Z,100618.94
2022-10-24T20:13:33.919Z,100623.09
2022-10-24T20:18:55.017Z,100628.13
2022-10-24T20:24:16.111Z,100628.06
2022-10-24T20:29:36.879Z,100639.00
2022-10-24T20:34:57.519Z,100637.28
2022-10-24T20:40:18.393Z,100644.31
2022-10-24T20:45:40.604Z,100648.56
2022-10-24T20:51:13.296Z,100651.13
2022-10-24T20:56:35.894Z,100660.44
2022-10-24T21:01:58.929Z,100658.56
2022-10-24T21:07:19.803Z,100664.63
2022-10-24T21:12:43.903Z,100672.94
2022-10-24T21:18:07.705Z,100671.84
2022-10-24T21:23:28.522Z,100682.69
2022-10-24T21:28:50.156Z,100679.97
2022-10-24T21:34:11.047Z,100681.38
2022-10-24T21:39:31.765Z,100682.25
2022-10-24T21:44:52.604Z,100681.25
2022-10-24T21:50:13.446Z,100687.13
2022-10-24T21:55:34.400Z,100696.56
